createdAt,value
2023-05-15T00:01:30.837Z,96.50
2023-05-15T00:03:57.879Z,96.70
2023-05-15T00:06:24.896Z,97.10
2023-05-15T00:08:51.845Z,97.30
2023-05-15T00:11:18.713Z,97.60
2023-05-15T00:13:45.582Z,97.80
2023-05-15T00:16:12.525Z,98.10
2023-05-15T00:18:39.493Z,98.10
2023-05-15T00:21:06.437Z,98.20
2023-05-15T00:23:33.316Z,98.40
2023-05-15T00:26:00.232Z,98.20
2023-05-15T00:28:27.070Z,98.50
2023-05-15T00:30:54.096Z,98.40
2023-05-15T00:33:21.036Z,98.70
2023-05-15T00:35:48.020Z,98.90
2023-05-15T00:38:14.888Z,98.80
2023-05-15T00:40:43.509Z,98.90
2023-05-15T00:43:11.975Z,99.10
2023-05-15T00:45:41.344Z,99.10
2023-05-15T00:48:10.041Z,99.80
2023-05-15T00:50:38.240Z,99.40
2023-05-15T00:53:06.087Z,99.90
2023-05-15T00:55:35.362Z,99.80
2023-05-15T00:58:03.102Z,99.90
2023-05-15T01:00:32.970Z,99.90
2023-05-15T01:03:01.783Z,99.90
2023-05-15T01:05:29.158Z,99.90
2023-05-15T01:08:06.733Z,99.90
2023-05-15T01:10:35.489Z,99.90
2023-05-15T01:13:02.866Z,99.90
2023-05-15T01:15:30.085Z,99.90
2023-05-15T01:17:57.142Z,99.90
2023-05-15T01:20:24.654Z,99.90
2023-05-15T01:23:19.502Z,99.90
2023-05-15T01:26:02.003Z,99.90
2023-05-15T01:28:37.932Z,99.90
2023-05-15T01:31:19.068Z,99.90
2023-05-15T01:33:50.421Z,99.90
2023-05-15T01:36:24.809Z,99.90
2023-05-15T01:38:55.981Z,99.90
2023-05-15T01:41:30.006Z,99.90
2023-05-15T01:44:01.903Z,99.90
2023-05-15T01:46:31.837Z,99.90
2023-05-15T01:49:02.534Z,99.90
2023-05-15T01:51:30.879Z,99.90
2023-05-15T01:53:59.574Z,99.90
2023-05-15T01:56:27.141Z,99.90
2023-05-15T01:58:55.927Z,99.90
2023-05-15T02:01:27.521Z,99.90
2023-05-15T02:03:55.309Z,99.90
2023-05-15T02:06:23.752Z,99.90
2023-05-15T02:08:53.035Z,99.90
2023-05-15T02:11:20.127Z,99.90
2023-05-15T02:13:47.637Z,99.90
2023-05-15T02:16:14.680Z,99.90
2023-05-15T02:18:42.043Z,99.90
2023-05-15T02:21:08.986Z,99.90
2023-05-15T02:23:35.923Z,99.90
2023-05-15T02:26:21.401Z,99.90
2023-05-15T02:29:01.851Z,99.90
2023-05-15T02:31:40.892Z,99.90
2023-05-15T02:34:32.728Z,99.90
2023-05-15T02:37:01.332Z,99.90
2023-05-15T02:39:29.279Z,99.90
2023-05-15T02:41:57.910Z,99.90
2023-05-15T02:44:26.200Z,99.90
2023-05-15T02:46:54.212Z,99.90
2023-05-15T02:49:22.041Z,99.90
2023-05-15T02:51:48.945Z,99.90
2023-05-15T02:54:16.349Z,99.90
2023-05-15T02:56:43.307Z,99.90
2023-05-15T02:59:10.367Z,99.90
2023-05-15T03:01:37.303Z,99.90
2023-05-15T03:04:04.415Z,99.90
2023-05-15T03:06:31.667Z,99.90
2023-05-15T03:08:58.524Z,99.90
2023-05-15T03:11:25.597Z,99.90
2023-05-15T03:13:52.489Z,99.90
2023-05-15T03:16:19.351Z,99.90
2023-05-15T03:18:46.521Z,99.90
2023-05-15T03:21:14.297Z,99.90
2023-05-15T03:23:41.248Z,99.90
2023-05-15T03:26:08.096Z,99.90
2023-05-15T03:28:35.064Z,99.90
2023-05-15T03:31:02.022Z,99.90
2023-05-15T03:33:28.902Z,99.90
2023-05-15T03:35:55.756Z,99.90
2023-05-15T03:38:22.659Z,99.90
2023-05-15T03:40:51.137Z,99.90
2023-05-15T03:43:18.256Z,99.90
2023-05-15T03:45:45.202Z,99.90
2023-05-15T03:48:12.076Z,99.90
2023-05-15T03:50:40.127Z,99.90
2023-05-15T03:53:07.214Z,99.90
2023-05-15T03:55:34.053Z,99.90
2023-05-15T03:58:01.022Z,99.90
2023-05-15T04:00:28.033Z,99.90
2023-05-15T04:02:55.118Z,99.90
2023-05-15T04:05:22.677Z,99.90
2023-05-15T04:07:49.718Z,99.90
2023-05-15T04:10:16.558Z,99.90
2023-05-15T04:12:43.521Z,99.90
2023-05-15T04:15:21.670Z,99.90
2023-05-15T04:17:51.880Z,99.90
2023-05-15T04:20:23.839Z,99.90
2023-05-15T04:22:50.982Z,99.90
2023-05-15T04:25:18.427Z,99.90
2023-05-15T04:27:45.282Z,99.90
2023-05-15T04:30:13.413Z,99.90
2023-05-15T04:32:40.803Z,99.90
2023-05-15T04:35:10.545Z,99.90
2023-05-15T04:37:38.786Z,99.90
2023-05-15T04:40:07.459Z,99.90
2023-05-15T04:42:35.613Z,99.90
2023-05-15T04:45:03.278Z,99.90
2023-05-15T04:47:30.231Z,99.90
2023-05-15T04:49:57.181Z,99.90
2023-05-15T04:52:24.060Z,99.90
2023-05-15T04:54:52.949Z,99.90
2023-05-15T04:57:19.894Z,99.90
2023-05-15T04:59:46.756Z,99.90
2023-05-15T05:02:13.617Z,99.90
2023-05-15T05:04:43.499Z,99.90
2023-05-15T05:07:10.408Z,99.90
2023-05-15T05:09:41.585Z,99.90
2023-05-15T05:12:09.361Z,99.90
2023-05-15T05:14:36.907Z,99.90
2023-05-15T05:17:04.203Z,99.90
2023-05-15T05:19:31.080Z,98.90
2023-05-15T05:22:01.258Z,98.50
2023-05-15T05:24:28.527Z,98.40
2023-05-15T05:26:58.081Z,98.40
2023-05-15T05:29:25.784Z,98.90
2023-05-15T05:31:53.072Z,99.10
2023-05-15T05:34:20.572Z,99.60
2023-05-15T05:36:47.874Z,99.70
2023-05-15T05:39:18.970Z,99.90
2023-05-15T05:41:45.958Z,99.90
2023-05-15T05:44:12.852Z,99.90
2023-05-15T05:46:39.897Z,99.90
2023-05-15T05:49:06.842Z,99.90
2023-05-15T05:51:38.925Z,99.90
2023-05-15T05:54:05.912Z,99.90
2023-05-15T05:56:32.838Z,99.90
2023-05-15T05:59:01.853Z,99.90
2023-05-15T06:01:29.152Z,99.90
2023-05-15T06:03:56.249Z,99.90
2023-05-15T06:06:23.525Z,99.90
2023-05-15T06:08:50.498Z,99.90
2023-05-15T06:11:17.525Z,99.70
2023-05-15T06:13:44.515Z,99.60
2023-05-15T06:16:11.420Z,99.70
2023-05-15T06:18:38.393Z,99.40
2023-05-15T06:21:05.694Z,99.30
2023-05-15T06:23:32.787Z,99.00
2023-05-15T06:25:59.714Z,98.40
2023-05-15T06:28:26.814Z,98.60
2023-05-15T06:30:53.847Z,97.70
2023-05-15T06:33:22.281Z,95.60
2023-05-15T06:35:52.170Z,93.70
2023-05-15T06:38:19.141Z,90.50
2023-05-15T06:40:46.328Z,88.20
2023-05-15T06:43:13.297Z,87.50
2023-05-15T06:45:40.326Z,88.10
2023-05-15T06:48:07.293Z,86.70
2023-05-15T06:50:34.313Z,84.90
2023-05-15T06:53:01.270Z,85.70
2023-05-15T06:55:28.224Z,85.40
2023-05-15T06:57:57.305Z,85.00
2023-05-15T07:00:24.303Z,85.10
2023-05-15T07:02:51.214Z,84.70
2023-05-15T07:05:21.809Z,84.10
2023-05-15T07:07:48.806Z,84.10
2023-05-15T07:10:15.894Z,85.20
2023-05-15T07:12:42.820Z,85.10
2023-05-15T07:15:10.324Z,84.70
2023-05-15T07:17:37.544Z,83.00
2023-05-15T07:20:06.146Z,84.00
2023-05-15T07:22:38.521Z,83.30
2023-05-15T07:25:08.961Z,83.40
2023-05-15T07:27:35.979Z,81.20
2023-05-15T07:30:04.198Z,83.20
2023-05-15T07:32:31.306Z,82.10
2023-05-15T07:34:58.251Z,84.40
2023-05-15T07:37:25.650Z,83.40
2023-05-15T07:39:52.758Z,82.80
2023-05-15T07:42:19.769Z,83.00
2023-05-15T07:44:49.405Z,82.80
2023-05-15T07:47:17.162Z,83.00
2023-05-15T07:49:44.016Z,81.20
2023-05-15T07:52:10.904Z,78.50
2023-05-15T07:54:39.513Z,78.00
2023-05-15T07:57:06.570Z,78.60
2023-05-15T07:59:33.812Z,79.40
2023-05-15T08:02:00.844Z,76.60
2023-05-15T08:04:27.917Z,76.90
2023-05-15T08:06:54.903Z,75.20
2023-05-15T08:09:21.888Z,75.40
2023-05-15T08:12:02.831Z,75.90
2023-05-15T08:14:29.875Z,75.10
2023-05-15T08:16:56.979Z,73.10
2023-05-15T08:19:24.209Z,74.70
2023-05-15T08:21:51.370Z,74.40
2023-05-15T08:24:18.525Z,74.90
2023-05-15T08:26:53.105Z,73.80
2023-05-15T08:29:20.208Z,72.90
2023-05-15T08:31:47.537Z,72.60
2023-05-15T08:34:19.167Z,73.80
2023-05-15T08:36:46.155Z,73.30
2023-05-15T08:39:13.181Z,75.10
2023-05-15T08:41:48.564Z,76.30
2023-05-15T08:44:15.774Z,75.60
2023-05-15T08:46:43.147Z,76.50
2023-05-15T08:49:37.142Z,77.50
2023-05-15T08:52:05.033Z,78.40
2023-05-15T08:54:33.065Z,80.10
2023-05-15T08:57:02.171Z,81.30
2023-05-15T08:59:29.499Z,80.60
2023-05-15T09:01:57.457Z,77.80
2023-05-15T09:04:24.388Z,78.00
2023-05-15T09:06:51.858Z,78.20
2023-05-15T09:09:20.478Z,76.50
2023-05-15T09:11:48.749Z,75.30
2023-05-15T09:14:15.712Z,74.10
2023-05-15T09:16:43.518Z,73.70
2023-05-15T09:19:11.342Z,72.40
2023-05-15T09:21:38.374Z,73.50
2023-05-15T09:24:23.611Z,73.50
2023-05-15T09:27:10.472Z,71.60
2023-05-15T09:29:39.231Z,73.00
2023-05-15T09:32:12.009Z,72.60
2023-05-15T09:34:41.161Z,74.00
2023-05-15T09:37:11.191Z,73.60
2023-05-15T09:39:42.861Z,72.90
2023-05-15T09:42:11.971Z,73.10
2023-05-15T09:44:46.585Z,72.10
2023-05-15T09:47:21.651Z,72.50
2023-05-15T09:49:49.157Z,72.80
2023-05-15T09:52:22.693Z,73.60
2023-05-15T09:54:53.108Z,72.40
2023-05-15T09:57:24.845Z,72.90
2023-05-15T09:59:52.270Z,73.00
2023-05-15T10:02:32.136Z,70.40
2023-05-15T10:04:59.566Z,70.10
2023-05-15T10:07:30.606Z,70.50
2023-05-15T10:09:58.130Z,70.80
2023-05-15T10:12:29.684Z,67.70
2023-05-15T10:14:58.430Z,68.90
2023-05-15T10:17:32.810Z,69.10
2023-05-15T10:20:00.919Z,67.70
2023-05-15T10:22:33.580Z,67.80
2023-05-15T10:25:32.338Z,66.50
2023-05-15T10:28:02.223Z,65.50
2023-05-15T10:30:31.612Z,65.20
2023-05-15T10:32:59.467Z,66.10
2023-05-15T10:35:28.068Z,65.20
2023-05-15T10:37:55.195Z,65.50
2023-05-15T10:40:23.798Z,64.60
2023-05-15T10:42:51.166Z,65.00
2023-05-15T10:45:18.533Z,65.20
2023-05-15T10:47:46.449Z,64.50
2023-05-15T10:50:16.374Z,63.50
2023-05-15T10:52:46.523Z,63.70
2023-05-15T10:55:17.828Z,64.30
2023-05-15T10:57:48.448Z,63.40
2023-05-15T11:00:33.636Z,61.00
2023-05-15T11:03:05.647Z,62.40
2023-05-15T11:06:12.205Z,61.50
2023-05-15T11:08:41.631Z,63.10
2023-05-15T11:11:08.696Z,63.90
2023-05-15T11:14:08.978Z,66.00
2023-05-15T11:16:54.467Z,72.00
2023-05-15T11:19:25.061Z,76.70
2023-05-15T11:22:03.966Z,75.90
2023-05-15T11:24:32.720Z,75.10
2023-05-15T11:27:04.182Z,75.10
2023-05-15T11:29:35.709Z,75.00
2023-05-15T11:32:03.050Z,73.00
2023-05-15T11:34:34.820Z,73.20
2023-05-15T11:37:02.035Z,71.10
2023-05-15T11:39:29.076Z,70.40
2023-05-15T11:41:57.777Z,68.90
2023-05-15T11:44:25.648Z,67.60
2023-05-15T11:46:56.581Z,67.90
2023-05-15T11:49:26.987Z,81.40
2023-05-15T11:51:54.210Z,90.50
2023-05-15T11:54:21.496Z,99.90
2023-05-15T11:56:50.326Z,99.90
2023-05-15T11:59:17.689Z,99.90
2023-05-15T12:01:47.782Z,99.90
2023-05-15T12:04:16.399Z,99.90
2023-05-15T12:06:49.650Z,99.90
2023-05-15T12:09:19.577Z,99.90
2023-05-15T12:11:52.725Z,99.90
2023-05-15T12:14:30.657Z,99.90
2023-05-15T12:17:05.084Z,99.90
2023-05-15T12:19:39.524Z,99.90
2023-05-15T12:22:42.831Z,99.90
2023-05-15T12:28:32.106Z,99.90
2023-05-15T12:31:05.369Z,99.90
2023-05-15T12:33:32.749Z,99.90
2023-05-15T12:36:10.924Z,99.90
2023-05-15T12:38:42.551Z,99.90
2023-05-15T12:41:20.206Z,99.90
2023-05-15T13:01:32.274Z,99.90
2023-05-15T13:04:12.432Z,99.90
2023-05-15T13:06:49.900Z,99.90
2023-05-15T13:09:24.792Z,99.90
2023-05-15T13:11:55.553Z,99.90
2023-05-15T13:14:29.514Z,99.90
2023-05-15T13:17:01.580Z,99.90
2023-05-15T13:19:28.985Z,99.90
2023-05-15T13:21:56.217Z,99.90
2023-05-15T13:24:35.247Z,99.90
2023-05-15T13:27:07.818Z,99.90
2023-05-15T13:29:35.070Z,99.90
2023-05-15T13:32:01.993Z,99.90
2023-05-15T13:34:28.976Z,99.90
2023-05-15T13:36:58.012Z,99.90
2023-05-15T13:39:27.027Z,99.90
2023-05-15T13:41:54.107Z,99.90
2023-05-15T13:44:21.176Z,99.90
2023-05-15T13:46:48.108Z,99.90
2023-05-15T13:49:15.086Z,99.90
2023-05-15T13:51:41.997Z,99.90
2023-05-15T13:54:08.833Z,99.90
2023-05-15T13:56:35.964Z,99.90
2023-05-15T14:00:06.491Z,99.90
2023-05-15T14:02:11.559Z,99.90
2023-05-15T14:04:38.493Z,99.90
2023-05-15T14:07:05.616Z,99.90
2023-05-15T14:09:32.510Z,99.90
2023-05-15T14:11:59.432Z,99.90
2023-05-15T14:14:26.503Z,99.90
2023-05-15T14:16:53.403Z,99.90
2023-05-15T14:19:20.370Z,99.90
2023-05-15T14:21:47.373Z,99.90
2023-05-15T14:24:14.249Z,99.90
2023-05-15T14:26:41.199Z,99.90
2023-05-15T14:29:08.592Z,99.90
2023-05-15T14:31:35.876Z,99.90
2023-05-15T14:34:02.935Z,99.90
2023-05-15T14:36:30.331Z,99.90
2023-05-15T14:39:00.227Z,99.90
2023-05-15T14:41:28.266Z,99.90
2023-05-15T14:43:55.394Z,99.90
2023-05-15T14:46:22.516Z,99.90
2023-05-15T14:48:49.516Z,99.90
2023-05-15T14:51:18.348Z,99.90
2023-05-15T14:53:46.510Z,99.90
2023-05-15T14:56:13.764Z,99.90
2023-05-15T14:58:40.751Z,99.90
2023-05-15T15:01:07.630Z,99.90
2023-05-15T15:03:34.576Z,99.90
2023-05-15T15:06:01.634Z,99.90
2023-05-15T15:08:28.728Z,99.90
2023-05-15T15:10:55.697Z,99.90
2023-05-15T15:13:22.752Z,99.90
2023-05-15T15:15:49.858Z,99.90
2023-05-15T15:18:16.905Z,99.90
2023-05-15T15:20:44.407Z,99.90
2023-05-15T15:23:11.401Z,99.90
2023-05-15T15:25:38.352Z,99.90
2023-05-15T15:28:05.404Z,99.90
2023-05-15T15:30:32.447Z,99.90
2023-05-15T15:32:59.978Z,99.90
2023-05-15T15:35:27.014Z,99.90
2023-05-15T15:37:54.204Z,99.90
2023-05-15T15:40:23.498Z,99.90
2023-05-15T15:42:50.855Z,99.90
2023-05-15T15:45:17.770Z,99.90
2023-05-15T15:47:44.758Z,99.90
2023-05-15T15:50:11.657Z,99.90
2023-05-15T15:52:38.574Z,99.90
2023-05-15T15:55:06.041Z,99.90
2023-05-15T15:57:33.062Z,99.90
2023-05-15T15:59:59.939Z,99.90
2023-05-15T16:02:28.203Z,99.90
2023-05-15T16:04:55.235Z,99.90
2023-05-15T16:07:22.703Z,99.90
2023-05-15T16:09:56.860Z,99.90
2023-05-15T16:12:36.822Z,99.90
2023-05-15T16:15:17.404Z,99.90
2023-05-15T16:17:54.723Z,99.90
2023-05-15T16:20:22.821Z,99.90
2023-05-15T16:22:50.035Z,99.90
2023-05-15T16:25:17.064Z,99.90
2023-05-15T16:27:44.030Z,99.90
2023-05-15T16:30:11.626Z,99.90
2023-05-15T16:32:39.352Z,99.90
2023-05-15T16:35:07.744Z,99.90
2023-05-15T16:37:34.845Z,99.90
2023-05-15T16:40:01.892Z,99.90
2023-05-15T16:42:28.905Z,99.90
2023-05-15T16:44:55.851Z,99.90
2023-05-15T16:47:22.860Z,99.90
2023-05-15T16:49:50.585Z,99.90
2023-05-15T16:52:17.632Z,99.90
2023-05-15T16:54:44.604Z,99.90
2023-05-15T16:57:11.501Z,99.90
2023-05-15T16:59:38.364Z,99.90
2023-05-15T17:02:05.340Z,99.90
2023-05-15T17:04:35.122Z,99.90
2023-05-15T17:07:02.023Z,99.90
2023-05-15T17:09:28.953Z,99.90
2023-05-15T17:11:55.854Z,99.90
2023-05-15T17:14:22.894Z,99.90
2023-05-15T17:16:49.923Z,99.90
2023-05-15T17:19:17.112Z,99.90
2023-05-15T17:21:45.563Z,99.90
2023-05-15T17:24:12.611Z,99.90
2023-05-15T17:27:05.589Z,99.90
2023-05-15T17:29:32.525Z,99.90
2023-05-15T17:31:59.475Z,99.90
2023-05-15T17:34:26.445Z,99.90
2023-05-15T17:36:53.294Z,99.90
2023-05-15T17:39:20.256Z,99.90
2023-05-15T17:41:47.309Z,99.90
2023-05-15T17:44:14.353Z,99.90
2023-05-15T17:46:41.338Z,99.90
2023-05-15T17:49:08.378Z,99.90
2023-05-15T17:51:35.894Z,99.90
2023-05-15T17:54:02.853Z,99.90
2023-05-15T17:56:29.809Z,99.90
2023-05-15T17:58:56.929Z,99.90
2023-05-15T18:01:25.124Z,99.90
2023-05-15T18:03:52.038Z,99.90
2023-05-15T18:06:19.077Z,99.90
2023-05-15T18:08:47.449Z,99.90
2023-05-15T18:11:22.107Z,99.90
2023-05-15T18:13:49.875Z,99.90
2023-05-15T18:16:18.048Z,99.90
2023-05-15T18:18:45.133Z,99.90
2023-05-15T18:21:12.177Z,99.90
2023-05-15T18:23:39.073Z,99.90
2023-05-15T18:26:06.052Z,99.90
2023-05-15T18:28:33.039Z,99.90
2023-05-15T18:31:00.125Z,99.90
2023-05-15T18:33:27.354Z,99.90
2023-05-15T18:35:54.394Z,99.90
2023-05-15T18:38:21.292Z,99.90
2023-05-15T18:40:48.560Z,99.90
2023-05-15T18:43:15.585Z,99.90
2023-05-15T18:45:43.047Z,99.90
2023-05-15T18:48:10.448Z,99.90
2023-05-15T18:50:37.373Z,99.90
2023-05-15T18:53:04.328Z,99.90
2023-05-15T18:55:32.280Z,99.90
2023-05-15T18:57:59.392Z,99.90
2023-05-15T19:00:36.949Z,99.90
2023-05-15T19:03:05.645Z,99.90
2023-05-15T19:05:34.147Z,99.90
2023-05-15T19:08:01.855Z,99.90
2023-05-15T19:10:29.810Z,99.90
2023-05-15T19:13:00.233Z,99.90
2023-05-15T19:15:27.381Z,99.90
2023-05-15T19:17:54.516Z,99.90
2023-05-15T19:20:21.633Z,99.90
2023-05-15T19:22:48.697Z,99.90
2023-05-15T19:25:15.701Z,99.90
2023-05-15T19:27:42.640Z,99.90
2023-05-15T19:30:10.169Z,99.90
2023-05-15T19:32:39.325Z,99.90
2023-05-15T19:35:06.759Z,99.90
2023-05-15T19:37:33.889Z,99.90
2023-05-15T19:40:00.838Z,99.90
2023-05-15T19:42:27.979Z,99.90
2023-05-15T19:44:54.955Z,99.90
2023-05-15T19:47:22.221Z,99.90
2023-05-15T19:49:49.197Z,99.90
2023-05-15T19:52:16.735Z,99.90
2023-05-15T19:54:44.345Z,99.90
2023-05-15T19:57:11.376Z,99.90
2023-05-15T19:59:38.499Z,99.90
2023-05-15T20:02:09.257Z,99.90
2023-05-15T20:04:37.276Z,99.90
2023-05-15T20:07:04.544Z,99.90
2023-05-15T20:09:31.563Z,99.90
2023-05-15T20:11:58.587Z,99.90
2023-05-15T20:14:25.702Z,99.90
2023-05-15T20:16:52.816Z,99.90
2023-05-15T20:19:22.149Z,99.90
2023-05-15T20:21:49.944Z,99.90
2023-05-15T20:24:18.151Z,99.90
2023-05-15T20:26:45.525Z,99.90
2023-05-15T20:29:12.590Z,99.90
2023-05-15T20:31:40.575Z,99.90
2023-05-15T20:34:08.622Z,99.90
2023-05-15T20:36:38.746Z,99.90
2023-05-15T20:39:07.184Z,99.90
2023-05-15T20:41:34.766Z,99.90
2023-05-15T20:44:02.183Z,99.90
2023-05-15T20:46:30.217Z,99.90
2023-05-15T20:48:57.821Z,99.90
2023-05-15T20:51:25.070Z,99.90
2023-05-15T20:53:51.916Z,99.90
2023-05-15T20:56:19.061Z,99.90
2023-05-15T20:58:46.088Z,99.90
2023-05-15T21:01:13.297Z,99.90
2023-05-15T21:03:40.569Z,99.90
2023-05-15T21:06:08.285Z,99.90
2023-05-15T21:08:35.261Z,99.90
2023-05-15T21:11:02.170Z,99.90
2023-05-15T21:13:29.224Z,99.90
2023-05-15T21:15:56.280Z,99.90
2023-05-15T21:18:23.729Z,99.90
2023-05-15T21:20:50.634Z,99.90
2023-05-15T21:23:18.245Z,99.90
2023-05-15T21:25:45.257Z,99.90
2023-05-15T21:28:12.224Z,99.90
2023-05-15T21:30:39.234Z,99.90
2023-05-15T21:33:06.244Z,99.90
2023-05-15T21:35:33.188Z,99.90
2023-05-15T21:38:00.339Z,99.90
2023-05-15T21:40:27.461Z,99.90
2023-05-15T21:42:54.522Z,99.90
2023-05-15T21:45:21.459Z,99.90
2023-05-15T21:47:48.530Z,99.90
2023-05-15T21:50:15.530Z,99.90
2023-05-15T21:52:42.592Z,99.90
2023-05-15T21:55:09.742Z,99.90
2023-05-15T21:57:36.614Z,99.90
2023-05-15T22:00:06.815Z,99.90
2023-05-15T22:02:33.887Z,99.90
2023-05-15T22:05:00.856Z,99.90
2023-05-15T22:07:27.780Z,99.90
2023-05-15T22:09:54.728Z,99.90
2023-05-15T22:12:21.652Z,99.90
2023-05-15T22:14:58.393Z,99.90
2023-05-15T22:17:29.044Z,99.90
2023-05-15T22:20:07.086Z,99.90
2023-05-15T22:22:35.758Z,99.90
2023-05-15T22:25:02.897Z,99.90
2023-05-15T22:27:29.919Z,99.90
2023-05-15T22:29:57.084Z,99.90
2023-05-15T22:32:24.178Z,99.90
2023-05-15T22:34:51.080Z,99.90
2023-05-15T22:37:18.157Z,99.90
2023-05-15T22:39:45.685Z,99.90
2023-05-15T22:42:12.698Z,99.90
2023-05-15T22:44:39.579Z,99.90
2023-05-15T22:47:07.630Z,99.90
2023-05-15T22:49:34.490Z,99.90
2023-05-15T22:52:01.456Z,99.90
2023-05-15T22:54:28.288Z,99.90
2023-05-15T22:56:55.284Z,99.90
2023-05-15T22:59:22.269Z,99.90
2023-05-15T23:01:49.484Z,99.90
2023-05-15T23:04:17.478Z,99.90
2023-05-15T23:06:44.697Z,99.90
2023-05-15T23:09:11.838Z,99.90
2023-05-15T23:11:38.953Z,99.90
2023-05-15T23:14:06.368Z,99.90
2023-05-15T23:16:33.260Z,99.90
2023-05-15T23:19:00.492Z,99.90
2023-05-15T23:21:28.489Z,99.90
2023-05-15T23:23:55.645Z,99.90
2023-05-15T23:26:22.508Z,99.90
2023-05-15T23:28:50.164Z,99.90
2023-05-15T23:31:17.475Z,99.90
2023-05-15T23:33:44.390Z,99.90
2023-05-15T23:36:11.315Z,99.90
2023-05-15T23:38:38.281Z,99.90
2023-05-15T23:41:05.503Z,99.90
2023-05-15T23:43:32.576Z,99.90
2023-05-15T23:45:59.497Z,99.90
2023-05-15T23:48:26.394Z,99.90
2023-05-15T23:50:53.401Z,99.90
2023-05-15T23:53:20.385Z,99.90
2023-05-15T23:55:47.403Z,99.90
2023-05-15T23:58:14.289Z,99.90
